Time;durP1;ratioP1;P1;durP2;ratioP2;P2;SDS_P1;SDS_P2;PMS_P1;PMS_P2;Temp;Humidity;BMP_temperature;BMP_pressure;BME280_temperature;BME280_humidity;BME280_pressure;Samples;Min_cycle;Max_cycle;Signal;HPM_P1;HPM_P2
2021/10/20 00:00:19;;;;;;;7.20;3.70;;;;;;;15.48;87.81;100985.44;4992876;28;20038;-47
2021/10/20 00:02:49;;;;;;;6.22;3.75;;;;;;;15.48;87.69;100987.38;4992926;28;20085;-47
2021/10/20 00:05:18;;;;;;;6.82;3.78;;;;;;;15.48;86.95;100979.13;4992682;28;20385;-46
2021/10/20 00:07:46;;;;;;;7.50;4.05;;;;;;;15.50;87.24;100982.41;4992912;28;20050;-46
2021/10/20 00:10:15;;;;;;;7.72;3.70;;;;;;;15.50;86.86;100983.22;4992612;28;20053;-46
2021/10/20 00:12:43;;;;;;;6.22;3.58;;;;;;;15.51;87.12;100982.13;4993224;28;20046;-47
2021/10/20 00:15:12;;;;;;;6.97;3.35;;;;;;;15.52;86.59;100974.69;4992153;28;20038;-47
2021/10/20 00:17:40;;;;;;;6.55;3.72;;;;;;;15.51;86.29;100973.88;4989808;28;20047;-46
2021/10/20 00:20:12;;;;;;;6.13;3.78;;;;;;;15.51;86.20;100962.06;4992155;28;20046;-46
2021/10/20 00:22:41;;;;;;;7.35;3.90;;;;;;;15.50;85.58;100961.25;4992816;28;20073;-45
2021/10/20 00:25:11;;;;;;;6.57;3.80;;;;;;;15.50;86.43;100969.50;4992914;28;20049;-47
2021/10/20 00:27:39;;;;;;;5.57;3.50;;;;;;;15.50;85.80;100954.94;4992950;28;20048;-46
2021/10/20 00:30:08;;;;;;;6.30;3.67;;;;;;;15.52;85.85;100958.22;4991368;28;20077;-44
2021/10/20 00:32:36;;;;;;;6.95;3.65;;;;;;;15.51;85.86;100959.31;4992098;28;20046;-47
2021/10/20 00:35:04;;;;;;;6.78;3.70;;;;;;;15.51;85.95;100959.31;4987473;28;20144;-46
2021/10/20 00:37:32;;;;;;;5.93;3.22;;;;;;;15.51;85.09;100957.41;4991119;28;20073;-48
2021/10/20 00:40:00;;;;;;;5.63;3.88;;;;;;;15.51;85.88;100951.06;4992454;28;20057;-46
2021/10/20 00:42:27;;;;;;;6.75;3.13;;;;;;;15.50;85.99;100938.47;4992622;28;20042;-45
2021/10/20 00:45:00;;;;;;;6.60;3.35;;;;;;;15.48;86.09;100926.97;4992265;28;20101;-47
2021/10/20 00:47:28;;;;;;;5.63;3.50;;;;;;;15.46;86.16;100930.00;4991840;28;20417;-47
2021/10/20 00:49:56;;;;;;;6.38;3.13;;;;;;;15.44;86.00;100929.50;5006787;28;20045;-47
2021/10/20 00:52:25;;;;;;;6.07;3.70;;;;;;;15.42;85.95;100908.94;4992765;28;20096;-47
2021/10/20 00:54:55;;;;;;;6.50;3.40;;;;;;;15.42;85.84;100915.25;4992620;28;20053;-47
2021/10/20 00:57:24;;;;;;;7.80;3.40;;;;;;;15.42;86.32;100912.50;4992020;28;20053;-46
2021/10/20 00:59:55;;;;;;;5.30;3.30;;;;;;;15.43;85.12;100918.81;4992118;28;20042;-44
2021/10/20 01:02:23;;;;;;;6.35;3.40;;;;;;;15.41;85.89;100913.59;4991742;28;20109;-46
2021/10/20 01:04:51;;;;;;;5.75;3.40;;;;;;;15.45;86.16;100911.09;4991965;28;20039;-46
2021/10/20 01:07:21;;;;;;;5.00;3.38;;;;;;;15.43;85.73;100911.38;4991657;28;20092;-44
2021/10/20 01:09:49;;;;;;;7.35;3.65;;;;;;;15.42;85.30;100892.47;4993281;28;20046;-47
2021/10/20 01:12:20;;;;;;;6.07;3.22;;;;;;;15.42;85.62;100889.72;5009227;28;20046;-46
2021/10/20 01:14:48;;;;;;;5.40;3.15;;;;;;;15.41;85.61;100885.34;5011892;28;20057;-47
2021/10/20 01:17:16;;;;;;;6.35;3.80;;;;;;;15.42;85.51;100890.53;5006900;28;20057;-43
2021/10/20 01:19:44;;;;;;;4.75;3.42;;;;;;;15.40;85.63;100887.28;5010931;28;20042;-44
2021/10/20 01:22:12;;;;;;;6.32;3.63;;;;;;;15.39;84.77;100887.56;4997212;28;20096;-44
2021/10/20 01:24:40;;;;;;;5.32;3.33;;;;;;;15.39;85.42;100879.31;5012073;28;20042;-43
2021/10/20 01:27:08;;;;;;;8.15;3.45;;;;;;;15.40;85.21;100870.81;5005359;28;20033;-44
2021/10/20 01:29:36;;;;;;;5.30;3.35;;;;;;;15.39;85.51;100876.59;5015521;28;20052;-44
2021/10/20 01:32:05;;;;;;;5.60;3.70;;;;;;;15.38;85.52;100872.22;5003061;28;20045;-44
2021/10/20 01:34:34;;;;;;;6.88;3.20;;;;;;;15.37;85.21;100873.31;5015204;28;20065;-47
2021/10/20 01:37:04;;;;;;;6.80;3.50;;;;;;;15.37;84.43;100865.06;5009553;28;20057;-46
2021/10/20 01:39:33;;;;;;;5.75;3.67;;;;;;;15.37;85.14;100851.34;5015557;28;20042;-45
2021/10/20 01:42:00;;;;;;;5.22;3.08;;;;;;;15.38;84.72;100856.56;5007868;28;20041;-47
2021/10/20 01:44:28;;;;;;;6.50;3.42;;;;;;;15.37;84.03;100851.34;5014306;28;20050;-44
2021/10/20 01:46:57;;;;;;;7.25;3.80;;;;;;;15.34;84.20;100845.38;5010810;28;20050;-43
2021/10/20 01:49:24;;;;;;;7.18;3.30;;;;;;;15.34;84.19;100844.53;5013993;28;20034;-44
2021/10/20 01:51:52;;;;;;;7.35;3.65;;;;;;;15.33;84.77;100849.22;5014310;28;20072;-48
2021/10/20 01:54:19;;;;;;;4.40;3.00;;;;;;;15.32;84.27;100844.84;5009720;28;20489;-45
2021/10/20 01:56:47;;;;;;;6.32;3.45;;;;;;;15.34;84.23;100837.13;5006081;28;20042;-45
2021/10/20 01:59:15;;;;;;;6.07;3.70;;;;;;;15.33;84.72;100842.91;5010715;28;20045;-45
2021/10/20 02:01:43;;;;;;;4.35;3.13;;;;;;;15.32;84.48;100839.34;5008249;28;20053;-46
2021/10/20 02:04:12;;;;;;;5.72;3.42;;;;;;;15.32;84.39;100828.38;5000640;28;20034;-44
2021/10/20 02:06:44;;;;;;;6.93;3.50;;;;;;;15.32;84.96;100822.88;5008732;28;20047;-47
2021/10/20 02:09:12;;;;;;;6.25;3.80;;;;;;;15.35;84.42;100832.44;5007765;28;20050;-46
2021/10/20 02:11:41;;;;;;;7.93;3.80;;;;;;;15.36;84.64;100823.09;5015019;28;20034;-47
2021/10/20 02:14:10;;;;;;;8.88;3.50;;;;;;;15.34;83.92;100819.81;5005340;28;20125;-44
2021/10/20 02:16:39;;;;;;;9.63;3.80;;;;;;;15.35;84.38;100815.97;5003303;28;20133;-43
2021/10/20 02:19:10;;;;;;;6.38;3.38;;;;;;;15.33;84.19;100808.03;5010935;28;20038;-45
2021/10/20 02:21:37;;;;;;;8.10;3.53;;;;;;;15.32;84.15;100811.91;5014671;28;20038;-46
2021/10/20 02:24:05;;;;;;;5.63;3.50;;;;;;;15.33;85.13;100802.53;5010787;28;20437;-47
2021/10/20 02:26:33;;;;;;;9.93;3.58;;;;;;;15.33;84.27;100810.78;5002951;28;20528;-46
2021/10/20 02:29:00;;;;;;;5.18;3.20;;;;;;;15.33;84.60;100809.97;5014846;28;20053;-45
2021/10/20 02:31:28;;;;;;;8.95;3.65;;;;;;;15.34;84.68;100803.34;5001390;28;20105;-44
2021/10/20 02:33:55;;;;;;;6.95;3.45;;;;;;;15.32;84.67;100794.59;4987052;28;20137;-46
2021/10/20 02:36:23;;;;;;;8.05;3.65;;;;;;;15.34;84.64;100798.69;5007552;28;20093;-47
2021/10/20 02:38:51;;;;;;;7.20;3.45;;;;;;;15.34;85.17;100793.22;5027378;28;20045;-43
2021/10/20 02:41:18;;;;;;;5.32;3.17;;;;;;;15.35;84.69;100788.53;5014413;28;20069;-43
2021/10/20 02:43:46;;;;;;;5.45;3.50;;;;;;;15.37;84.70;100789.03;5011391;28;20042;-43
2021/10/20 02:46:13;;;;;;;4.90;3.10;;;;;;;15.37;84.39;100796.44;5002882;28;20444;-43
2021/10/20 02:48:42;;;;;;;5.75;3.60;;;;;;;15.35;84.77;100788.53;5014017;28;20046;-44
2021/10/20 02:51:11;;;;;;;5.72;3.55;;;;;;;15.34;84.74;100781.38;5014447;28;20389;-45
2021/10/20 02:53:39;;;;;;;7.75;3.90;;;;;;;15.36;84.60;100787.41;5014290;28;20050;-47
2021/10/20 02:56:07;;;;;;;5.68;3.30;;;;;;;15.34;84.92;100779.47;4998562;28;20046;-46
2021/10/20 02:58:35;;;;;;;4.90;3.40;;;;;;;15.33;84.68;100769.59;5007328;28;20079;-47
2021/10/20 03:01:03;;;;;;;5.50;3.28;;;;;;;15.32;84.48;100778.97;5008245;28;20038;-47
2021/10/20 03:03:31;;;;;;;6.93;3.72;;;;;;;15.29;84.51;100765.81;5014195;28;20042;-48
2021/10/20 03:05:58;;;;;;;6.32;3.65;;;;;;;15.29;83.92;100767.75;5007348;28;20096;-45
2021/10/20 03:08:26;;;;;;;11.07;3.60;;;;;;;15.28;85.00;100772.44;5003902;28;20050;-47
2021/10/20 03:10:54;;;;;;;7.40;3.70;;;;;;;15.31;85.14;100771.81;5014013;28;20057;-47
2021/10/20 03:13:21;;;;;;;6.22;3.67;;;;;;;15.36;85.83;100768.19;5013912;28;20053;-47
2021/10/20 03:15:49;;;;;;;10.23;3.85;;;;;;;15.33;85.04;100752.31;5004883;28;20042;-47
2021/10/20 03:18:17;;;;;;;6.25;3.50;;;;;;;15.33;84.94;100753.13;5012334;28;20489;-47
2021/10/20 03:20:44;;;;;;;8.02;3.55;;;;;;;15.34;84.79;100746.53;5012481;28;20056;-47
2021/10/20 03:23:12;;;;;;;7.45;3.42;;;;;;;15.33;84.76;100744.88;5013481;28;20046;-49
2021/10/20 03:25:39;;;;;;;6.07;3.70;;;;;;;15.32;84.75;100735.03;5010984;28;20049;-44
2021/10/20 03:28:07;;;;;;;11.40;3.67;;;;;;;15.32;84.97;100737.78;4996508;28;20084;-45
2021/10/20 03:30:34;;;;;;;6.28;3.50;;;;;;;15.32;85.10;100734.19;5010500;28;20448;-46
2021/10/20 03:33:02;;;;;;;6.35;3.55;;;;;;;15.32;85.12;100745.19;5008308;28;20065;-46
2021/10/20 03:35:30;;;;;;;7.20;3.55;;;;;;;15.32;85.66;100746.03;5012203;28;20045;-48
2021/10/20 03:37:57;;;;;;;7.22;4.10;;;;;;;15.32;85.01;100746.03;4997003;28;20069;-48
2021/10/20 03:40:25;;;;;;;6.72;3.83;;;;;;;15.31;84.75;100743.56;5010809;28;20061;-47
2021/10/20 03:42:52;;;;;;;7.78;3.75;;;;;;;15.32;84.84;100747.94;5013300;28;20049;-46
2021/10/20 03:45:20;;;;;;;5.57;3.38;;;;;;;15.32;85.27;100737.78;5007160;28;20042;-47
2021/10/20 03:47:48;;;;;;;6.70;3.60;;;;;;;15.32;85.05;100742.44;5009307;28;20043;-48
2021/10/20 03:50:15;;;;;;;6.60;3.42;;;;;;;15.34;85.43;100743.78;5007386;28;20049;-47
2021/10/20 03:52:43;;;;;;;7.18;3.72;;;;;;;15.33;85.04;100728.41;5013384;28;20052;-49
2021/10/20 03:55:10;;;;;;;5.68;3.20;;;;;;;15.31;85.05;100727.09;5011993;28;20046;-46
2021/10/20 03:57:39;;;;;;;6.28;3.65;;;;;;;15.30;85.34;100720.00;5011931;28;20050;-44
2021/10/20 04:00:12;;;;;;;9.18;3.67;;;;;;;15.30;85.40;100720.78;5000712;28;20047;-45
2021/10/20 04:02:44;;;;;;;7.78;3.70;;;;;;;15.34;85.88;100724.56;5011259;28;20046;-46
2021/10/20 04:05:17;;;;;;;9.07;3.65;;;;;;;15.32;85.02;100717.72;5012759;28;20045;-47
2021/10/20 04:07:46;;;;;;;6.18;3.65;;;;;;;15.32;84.96;100717.72;4995010;28;20042;-47
2021/10/20 04:10:21;;;;;;;7.32;3.85;;;;;;;15.33;85.57;100700.16;5003453;28;20049;-49
2021/10/20 04:12:49;;;;;;;6.37;3.40;;;;;;;15.34;85.72;100699.03;5012518;28;20041;-47
2021/10/20 04:15:18;;;;;;;6.55;3.80;;;;;;;15.33;85.92;100684.50;5004738;28;20302;-48
2021/10/20 04:17:46;;;;;;;9.52;4.53;;;;;;;15.31;85.23;100681.22;5009641;28;20057;-50
2021/10/20 04:20:16;;;;;;;9.25;4.20;;;;;;;15.29;84.92;100682.66;5006138;28;20030;-46
2021/10/20 04:22:45;;;;;;;12.50;4.68;;;;;;;15.28;84.86;100675.56;5004705;28;20042;-49
2021/10/20 04:25:13;;;;;;;6.95;4.30;;;;;;;15.28;84.78;100667.31;5010115;28;20045;-49
2021/10/20 04:27:41;;;;;;;7.68;4.05;;;;;;;15.28;84.53;100670.06;5002944;28;20073;-48
2021/10/20 04:30:10;;;;;;;6.50;3.83;;;;;;;15.28;84.80;100672.81;4995158;28;20653;-48
2021/10/20 04:32:38;;;;;;;7.78;3.33;;;;;;;15.30;84.86;100676.06;4991546;28;20414;-48
2021/10/20 04:35:06;;;;;;;8.77;4.20;;;;;;;15.33;85.30;100668.03;5012307;28;20108;-47
2021/10/20 04:37:34;;;;;;;8.65;4.18;;;;;;;15.36;84.65;100663.03;4650860;28;9999976;-49
2021/10/20 04:40:03;;;;;;;5.93;3.83;;;;;;;15.37;85.24;100664.66;4989708;28;20048;-48
2021/10/20 04:42:31;;;;;;;6.07;3.92;;;;;;;15.38;85.76;100649.84;5000304;28;20068;-49
2021/10/20 04:44:59;;;;;;;8.43;3.65;;;;;;;15.34;85.48;100655.09;5004069;28;20042;-51
2021/10/20 04:47:27;;;;;;;6.00;3.55;;;;;;;15.34;85.49;100655.94;5004573;28;20524;-44
2021/10/20 04:49:54;;;;;;;7.10;3.97;;;;;;;15.36;85.35;100652.06;5009990;28;20142;-47
2021/10/20 04:52:23;;;;;;;7.32;4.10;;;;;;;15.34;84.88;100644.13;5004715;28;20092;-47
2021/10/20 04:54:51;;;;;;;6.10;3.70;;;;;;;15.32;85.42;100633.47;5009614;28;20049;-49
2021/10/20 04:57:19;;;;;;;8.25;3.88;;;;;;;15.34;85.59;100635.88;4999020;28;20050;-47
2021/10/20 04:59:46;;;;;;;6.75;3.78;;;;;;;15.38;86.72;100611.41;4992859;28;20050;-48
2021/10/20 05:02:14;;;;;;;5.13;3.35;;;;;;;15.47;87.27;100626.03;5002535;28;20038;-47
2021/10/20 05:04:42;;;;;;;6.80;4.18;;;;;;;15.45;86.07;100620.84;4992639;28;20104;-49
2021/10/20 05:07:11;;;;;;;6.18;3.65;;;;;;;15.47;87.05;100609.56;4989835;28;20050;-46
2021/10/20 05:09:39;;;;;;;7.30;4.20;;;;;;;15.38;84.41;100603.16;4992918;28;20552;-44
2021/10/20 05:12:06;;;;;;;10.52;4.38;;;;;;;15.32;85.50;100603.28;5001415;28;20460;-44
2021/10/20 05:14:34;;;;;;;7.43;3.70;;;;;;;15.29;85.57;100592.06;4995561;28;20050;-47
2021/10/20 05:17:02;;;;;;;8.68;4.47;;;;;;;15.27;85.37;100589.66;4993705;28;20039;-47
2021/10/20 05:19:29;;;;;;;7.68;4.03;;;;;;;15.29;85.33;100603.84;4996557;28;20105;-47
2021/10/20 05:21:57;;;;;;;7.63;3.88;;;;;;;15.28;85.26;100596.75;4996315;28;20405;-48
2021/10/20 05:24:24;;;;;;;6.55;3.80;;;;;;;15.27;85.64;100595.16;4992973;28;20045;-48
2021/10/20 05:26:56;;;;;;;8.02;3.97;;;;;;;15.24;85.31;100593.00;5000026;28;20068;-47
2021/10/20 05:29:24;;;;;;;11.18;4.50;;;;;;;15.27;85.34;100591.56;4988891;28;20038;-46
2021/10/20 05:31:51;;;;;;;13.55;4.13;;;;;;;15.32;86.75;100592.28;5000974;28;20042;-44
2021/10/20 05:34:19;;;;;;;15.02;5.55;;;;;;;15.41;87.87;100586.06;5006915;28;20053;-44
2021/10/20 05:36:46;;;;;;;13.15;5.25;;;;;;;15.45;86.42;100576.91;4997802;28;20046;-47
2021/10/20 05:39:18;;;;;;;14.77;5.97;;;;;;;15.45;88.48;100570.63;4989761;28;20105;-46
2021/10/20 05:41:45;;;;;;;19.38;4.85;;;;;;;15.51;88.65;100583.94;5002323;28;20042;-47
2021/10/20 05:44:14;;;;;;;12.48;4.55;;;;;;;15.55;87.79;100586.88;4983933;28;20761;-47
2021/10/20 05:46:41;;;;;;;8.63;4.35;;;;;;;15.50;87.24;100592.47;4990722;28;20034;-47
2021/10/20 05:49:09;;;;;;;8.45;4.05;;;;;;;15.55;87.84;100595.91;4997075;28;20038;-48
2021/10/20 05:51:37;;;;;;;6.80;3.90;;;;;;;15.51;86.23;100594.09;5000811;28;20054;-46
2021/10/20 05:54:04;;;;;;;9.60;4.28;;;;;;;15.53;87.40;100576.19;5009138;28;20042;-47
2021/10/20 05:56:32;;;;;;;9.15;4.47;;;;;;;15.58;87.40;100571.72;4996669;28;20520;-43
2021/10/20 05:59:00;;;;;;;11.85;5.47;;;;;;;15.61;86.34;100543.63;4991668;28;20069;-47
2021/10/20 06:01:30;;;;;;;13.15;5.22;;;;;;;15.56;87.91;100536.31;5009118;28;20042;-46
2021/10/20 06:03:59;;;;;;;12.98;4.47;;;;;;;15.55;87.73;100523.72;5009489;28;20045;-47
2021/10/20 06:06:26;;;;;;;9.82;4.40;;;;;;;15.61;89.25;100511.50;5009222;28;20046;-47
2021/10/20 06:08:54;;;;;;;11.50;5.18;;;;;;;15.67;87.14;100504.75;4996140;28;20053;-47
2021/10/20 06:11:22;;;;;;;14.05;5.35;;;;;;;15.64;88.26;100505.38;4997773;28;20041;-46
2021/10/20 06:13:50;;;;;;;12.85;4.88;;;;;;;15.57;87.99;100512.44;5012801;28;20516;-48
2021/10/20 06:16:18;;;;;;;19.98;5.82;;;;;;;15.67;88.40;100515.75;5014538;28;20053;-47
2021/10/20 06:18:46;;;;;;;13.43;5.50;;;;;;;15.62;88.52;100535.09;5006589;28;20085;-47
2021/10/20 06:21:13;;;;;;;23.88;6.60;;;;;;;15.62;88.55;100526.84;5007864;28;20042;-44
2021/10/20 06:23:41;;;;;;;12.27;5.40;;;;;;;15.59;87.62;100518.44;5013995;28;20038;-45
2021/10/20 06:26:09;;;;;;;16.85;5.45;;;;;;;15.60;90.16;100525.53;5014770;28;20050;-44
2021/10/20 06:28:37;;;;;;;18.00;6.93;;;;;;;15.67;88.20;100514.94;5012249;28;20048;-45
2021/10/20 06:31:05;;;;;;;11.93;5.57;;;;;;;15.62;87.79;100502.13;5005477;28;20042;-48
2021/10/20 06:33:32;;;;;;;25.27;7.78;;;;;;;15.62;87.33;100517.81;5011490;28;22335;-47
2021/10/20 06:36:01;;;;;;;23.00;7.13;;;;;;;15.57;88.47;100526.16;5003015;28;20054;-47
2021/10/20 06:38:29;;;;;;;17.20;6.88;;;;;;;15.68;87.79;100519.28;5014047;28;20394;-46
2021/10/20 06:40:56;;;;;;;28.00;9.30;;;;;;;15.79;88.60;100512.47;5006276;28;20030;-44
2021/10/20 06:43:24;;;;;;;18.67;7.22;;;;;;;15.69;87.65;100504.47;5014481;28;20050;-44
2021/10/20 06:45:52;;;;;;;19.65;7.13;;;;;;;15.84;88.30;100514.31;5014221;28;20145;-45
2021/10/20 06:48:20;;;;;;;18.95;7.78;;;;;;;15.84;88.41;100514.31;5011086;28;20053;-47
2021/10/20 06:50:48;;;;;;;21.95;6.95;;;;;;;15.86;87.95;100515.63;5012344;28;20037;-46
2021/10/20 06:53:15;;;;;;;21.38;7.00;;;;;;;15.80;88.99;100514.09;5014296;28;20122;-49
2021/10/20 06:55:45;;;;;;;23.90;6.75;;;;;;;15.84;87.76;100519.78;5013798;28;20424;-49
2021/10/20 06:58:13;;;;;;;25.60;7.20;;;;;;;16.09;89.23;100535.69;5014070;28;20053;-48
2021/10/20 07:00:40;;;;;;;28.10;8.18;;;;;;;16.09;86.56;100535.69;5000767;28;20111;-47
2021/10/20 07:03:08;;;;;;;19.15;7.43;;;;;;;16.05;86.60;100526.44;5013945;28;20042;-46
2021/10/20 07:05:35;;;;;;;23.75;7.53;;;;;;;16.00;87.30;100545.78;5013682;28;20053;-46
2021/10/20 07:08:03;;;;;;;19.85;7.10;;;;;;;16.06;86.66;100555.53;5013627;28;20428;-49
2021/10/20 07:10:31;;;;;;;22.45;7.50;;;;;;;15.99;88.19;100544.16;5005272;28;20399;-46
2021/10/20 07:12:58;;;;;;;25.75;8.50;;;;;;;15.89;88.72;100527.91;5013269;28;20042;-48
2021/10/20 07:15:26;;;;;;;17.15;6.60;;;;;;;16.02;86.65;100520.72;5013831;28;20040;-49
2021/10/20 07:17:54;;;;;;;27.88;8.10;;;;;;;16.03;88.44;100495.69;5013262;28;20108;-49
2021/10/20 07:20:21;;;;;;;26.40;8.90;;;;;;;16.12;87.52;100488.31;5011233;28;20041;-49
2021/10/20 07:22:49;;;;;;;27.23;9.25;;;;;;;16.14;87.96;100483.31;4996506;28;20042;-48
2021/10/20 07:25:19;;;;;;;24.48;8.68;;;;;;;16.15;85.92;100468.44;5000440;28;20048;-51
2021/10/20 07:27:48;;;;;;;16.92;6.63;;;;;;;16.13;86.53;100473.44;5013323;28;20049;-48
2021/10/20 07:30:16;;;;;;;16.50;6.45;;;;;;;16.15;87.22;100471.19;5007907;28;20034;-45
2021/10/20 07:32:44;;;;;;;12.25;5.47;;;;;;;16.02;86.69;100444.63;5002804;28;20385;-47
2021/10/20 07:35:16;;;;;;;18.02;6.63;;;;;;;15.98;88.53;100441.66;5012379;28;20165;-45
2021/10/20 07:37:44;;;;;;;18.13;6.88;;;;;;;16.02;87.71;100436.38;5013292;28;20045;-48
2021/10/20 07:40:13;;;;;;;19.75;7.60;;;;;;;16.13;88.14;100445.97;5013190;28;20038;-47
2021/10/20 07:42:44;;;;;;;16.50;6.70;;;;;;;15.89;87.96;100407.81;5010722;28;20451;-47
2021/10/20 07:45:15;;;;;;;22.33;7.90;;;;;;;15.83;89.23;100397.31;5004585;28;20501;-48
2021/10/20 07:47:46;;;;;;;16.83;6.10;;;;;;;15.74;89.25;100378.81;5012923;28;20463;-48
2021/10/20 07:50:15;;;;;;;17.65;6.65;;;;;;;15.70;89.76;100383.31;5010883;28;20042;-46
2021/10/20 07:52:47;;;;;;;16.08;6.22;;;;;;;15.75;90.32;100366.72;5007675;28;20047;-48
2021/10/20 07:55:21;;;;;;;10.80;5.70;;;;;;;15.62;89.83;100342.03;5001166;28;20043;-47
2021/10/20 07:57:53;;;;;;;14.68;5.90;;;;;;;15.61;90.93;100330.25;4987680;28;20045;-49
2021/10/20 08:00:22;;;;;;;14.88;5.93;;;;;;;15.58;91.20;100333.59;5003768;28;20042;-48
2021/10/20 08:02:49;;;;;;;21.90;7.40;;;;;;;15.72;92.11;100337.13;5011380;28;20485;-47
2021/10/20 08:05:17;;;;;;;9.90;5.40;;;;;;;15.59;90.71;100338.00;4993692;28;20061;-45
2021/10/20 08:07:45;;;;;;;11.32;5.47;;;;;;;15.43;91.76;100339.50;5011016;28;20412;-45
2021/10/20 08:10:23;;;;;;;12.18;6.05;;;;;;;15.39;91.77;100327.50;5012671;28;20124;-48
2021/10/20 08:12:52;;;;;;;11.77;6.10;;;;;;;15.39;92.58;100319.25;5007299;28;20096;-49
2021/10/20 08:15:20;;;;;;;9.82;5.68;;;;;;;15.36;91.99;100331.69;5012733;28;20069;-48
2021/10/20 08:17:48;;;;;;;13.70;6.20;;;;;;;15.34;92.45;100343.00;5012340;28;20497;-49
2021/10/20 08:20:18;;;;;;;6.57;4.10;;;;;;;15.34;91.91;100350.41;5012461;28;20073;-47
2021/10/20 08:22:46;;;;;;;12.68;5.95;;;;;;;15.47;91.76;100356.97;5000900;28;20321;-47
2021/10/20 08:25:14;;;;;;;12.57;5.90;;;;;;;15.53;91.87;100356.50;5011030;28;20125;-47
2021/10/20 08:27:42;;;;;;;11.43;5.68;;;;;;;15.59;91.03;100359.16;5012668;28;20050;-47
2021/10/20 08:30:19;;;;;;;14.18;6.25;;;;;;;15.61;91.60;100352.22;5011761;28;20396;-46
2021/10/20 08:32:50;;;;;;;16.08;7.30;;;;;;;15.77;91.20;100350.72;5001899;28;20180;-47
2021/10/20 08:35:18;;;;;;;15.95;7.90;;;;;;;15.81;91.21;100344.59;5008690;28;20038;-45
2021/10/20 08:38:23;;;;;;;15.52;6.72;;;;;;;15.84;91.00;100346.72;5011526;28;20048;-48
2021/10/20 08:40:47;;;;;;;24.27;8.10;;;;;;;15.94;90.67;100347.25;5011495;28;20049;-45
2021/10/20 08:43:16;;;;;;;16.80;6.38;;;;;;;15.94;90.04;100352.75;5002423;28;20114;-47
2021/10/20 08:45:44;;;;;;;16.20;6.90;;;;;;;15.86;90.21;100352.72;5010618;28;20045;-45
2021/10/20 08:48:19;;;;;;;22.75;7.70;;;;;;;16.04;90.17;100359.91;5011717;28;20501;-47
2021/10/20 08:50:52;;;;;;;21.23;8.25;;;;;;;16.08;89.48;100374.63;4998151;28;20045;-47
2021/10/20 08:53:20;;;;;;;15.60;7.20;;;;;;;16.06;89.50;100378.84;5008706;28;20405;-48
2021/10/20 08:55:49;;;;;;;16.08;6.70;;;;;;;16.10;88.66;100382.56;5009777;28;20061;-48
2021/10/20 08:58:18;;;;;;;21.70;7.82;;;;;;;16.03;89.85;100384.97;5011854;28;20054;-46
2021/10/20 09:00:45;;;;;;;20.25;7.95;;;;;;;16.24;88.96;100386.03;4999277;28;21970;-47
2021/10/20 09:03:14;;;;;;;11.45;5.85;;;;;;;16.26;88.44;100383.78;4995851;28;20512;-44
2021/10/20 09:05:42;;;;;;;21.15;8.32;;;;;;;16.18;89.67;100377.09;5006916;28;20038;-47
2021/10/20 09:08:09;;;;;;;14.70;7.13;;;;;;;16.07;89.15;100369.47;5004024;28;20038;-45
2021/10/20 09:10:37;;;;;;;11.70;6.30;;;;;;;15.99;89.79;100365.53;5005975;28;20137;-48
2021/10/20 09:13:05;;;;;;;11.00;5.85;;;;;;;15.90;89.89;100370.19;5012024;28;20042;-48
2021/10/20 09:15:34;;;;;;;8.48;5.32;;;;;;;15.96;89.35;100360.69;4999599;28;20429;-46
2021/10/20 09:18:05;;;;;;;10.40;5.93;;;;;;;15.81;90.35;100355.59;5010365;28;20049;-45
2021/10/20 09:20:45;;;;;;;10.18;5.35;;;;;;;15.69;90.65;100345.97;5007892;28;20046;-46
2021/10/20 09:23:18;;;;;;;10.85;6.03;;;;;;;15.65;91.12;100349.66;5010535;28;20386;-47
2021/10/20 09:25:46;;;;;;;9.38;5.43;;;;;;;15.62;91.33;100342.84;5003858;28;20034;-46
2021/10/20 09:28:32;;;;;;;10.43;5.72;;;;;;;15.73;91.26;100332.44;5006235;28;20504;-48
2021/10/20 09:31:02;;;;;;;10.80;6.13;;;;;;;15.94;90.49;100335.44;5011340;28;20447;-45
2021/10/20 09:33:32;;;;;;;10.43;4.90;;;;;;;16.10;90.32;100336.66;5011221;28;20054;-48
2021/10/20 09:36:04;;;;;;;14.07;6.28;;;;;;;16.24;89.67;100346.75;5006927;28;20038;-46
2021/10/20 09:38:36;;;;;;;10.95;5.10;;;;;;;16.40;88.30;100339.66;5007122;28;20130;-48
2021/10/20 09:41:06;;;;;;;13.43;5.78;;;;;;;16.46;88.47;100345.84;5011764;28;20050;-46
2021/10/20 09:43:53;;;;;;;11.10;6.15;;;;;;;16.55;87.82;100327.44;5011012;28;20057;-47
2021/10/20 09:46:35;;;;;;;10.25;4.97;;;;;;;16.60;87.19;100333.59;5008747;28;20402;-47
2021/10/20 09:49:14;;;;;;;11.60;6.00;;;;;;;16.55;87.50;100328.25;4998239;28;20038;-47
2021/10/20 09:51:42;;;;;;;11.88;5.03;;;;;;;16.48;88.36;100318.84;5009288;28;20042;-49
2021/10/20 09:54:24;;;;;;;12.25;6.25;;;;;;;16.58;87.03;100324.84;5015346;28;20053;-46
2021/10/20 09:56:59;;;;;;;18.58;6.47;;;;;;;16.82;87.88;100318.13;5013555;28;20125;-46
2021/10/20 09:59:28;;;;;;;10.38;6.13;;;;;;;16.58;87.66;100324.84;4999714;28;20104;-48
2021/10/20 10:01:56;;;;;;;10.50;5.90;;;;;;;16.47;88.13;100312.50;5011722;28;20042;-47
2021/10/20 10:04:27;;;;;;;11.40;5.85;;;;;;;16.43;88.02;100333.56;5000397;28;20054;-48
2021/10/20 10:06:55;;;;;;;10.88;5.75;;;;;;;16.30;88.57;100328.97;5015368;28;20378;-47
2021/10/20 10:09:27;;;;;;;14.40;5.60;;;;;;;16.38;88.77;100336.44;5001837;28;20046;-48
2021/10/20 10:12:22;;;;;;;12.02;6.38;;;;;;;16.46;89.02;100310.91;5014660;28;20041;-47
2021/10/20 10:15:04;;;;;;;20.45;7.57;;;;;;;16.49;89.05;100315.75;5016275;28;20069;-45
2021/10/20 10:17:53;;;;;;;14.20;6.45;;;;;;;16.61;90.09;100313.19;5002454;28;20053;-47
2021/10/20 10:20:21;;;;;;;22.73;8.95;;;;;;;16.83;88.50;100322.47;4993703;28;20122;-47
2021/10/20 10:22:54;;;;;;;17.02;7.13;;;;;;;16.79;89.00;100318.75;5007051;28;20108;-47
2021/10/20 10:25:40;;;;;;;15.20;7.22;;;;;;;16.92;88.72;100322.50;5014677;28;20038;-48
2021/10/20 10:28:20;;;;;;;;;;;;;;;16.80;89.10;100323.13;5006454;28;20056;-44
2021/10/20 10:30:57;;;;;;;10.25;4.43;;;;;;;16.77;88.45;100315.50;5004134;28;19921;-47
2021/10/20 10:33:28;;;;;;;15.32;6.82;;;;;;;16.85;87.29;100311.97;5013528;28;20088;-47
2021/10/20 10:36:13;;;;;;;9.93;5.70;;;;;;;16.76;86.77;100316.59;5014642;28;20065;-47
2021/10/20 10:38:58;;;;;;;9.77;5.38;;;;;;;16.54;87.57;100312.84;5009579;28;20125;-45
2021/10/20 10:41:30;;;;;;;9.48;5.53;;;;;;;16.47;87.28;100317.22;5007582;28;20045;-49
2021/10/20 10:44:10;;;;;;;9.93;5.60;;;;;;;16.33;88.22;100311.81;5014340;28;20037;-45
2021/10/20 10:46:53;;;;;;;8.52;5.32;;;;;;;16.25;88.15;100316.16;5012304;28;20484;-46
2021/10/20 10:49:28;;;;;;;11.13;4.93;;;;;;;16.49;89.09;100307.50;4988911;28;20503;-47
2021/10/20 10:52:17;;;;;;;13.63;5.63;;;;;;;16.59;87.52;100304.44;5009294;28;20523;-47
2021/10/20 10:55:00;;;;;;;13.07;5.45;;;;;;;16.87;87.44;100298.69;5014594;28;20057;-50
2021/10/20 10:57:54;;;;;;;17.63;6.00;;;;;;;16.95;85.97;100289.63;5009456;28;20039;-48
2021/10/20 11:00:21;;;;;;;11.25;5.18;;;;;;;16.85;86.56;100298.19;5000657;28;20050;-48
2021/10/20 11:02:55;;;;;;;9.48;5.47;;;;;;;16.72;86.67;100296.41;5000604;28;20034;-48
2021/10/20 11:05:31;;;;;;;11.50;6.10;;;;;;;16.78;87.52;100284.91;5014323;28;20052;-49
2021/10/20 11:08:04;;;;;;;13.95;6.35;;;;;;;16.72;87.65;100286.19;5000808;28;20034;-48
2021/10/20 11:10:36;;;;;;;11.13;5.47;;;;;;;16.72;88.35;100288.13;5013532;28;20125;-47
2021/10/20 11:13:04;;;;;;;10.20;5.47;;;;;;;16.81;87.61;100277.94;5001492;28;20401;-48
2021/10/20 11:15:32;;;;;;;9.55;4.68;;;;;;;16.70;87.44;100276.66;4997652;28;20047;-47
2021/10/20 11:18:00;;;;;;;11.27;5.78;;;;;;;16.68;88.16;100285.22;5011907;28;20057;-51
2021/10/20 11:20:31;;;;;;;9.45;5.00;;;;;;;16.60;88.11;100286.03;5007069;28;20056;-46
2021/10/20 11:23:04;;;;;;;10.38;4.82;;;;;;;16.61;87.72;100293.94;5007786;28;20060;-47
2021/10/20 11:25:33;;;;;;;12.43;5.80;;;;;;;16.79;87.37;100289.31;4994470;28;20034;-47
2021/10/20 11:28:01;;;;;;;11.70;5.85;;;;;;;16.76;88.24;100291.84;4995965;28;20062;-47
2021/10/20 11:30:31;;;;;;;11.55;5.35;;;;;;;16.74;87.96;100294.09;5013157;28;20046;-46
2021/10/20 11:33:01;;;;;;;12.85;5.32;;;;;;;16.76;87.63;100292.69;5009232;28;20517;-47